Time;durP1;ratioP1;P1;durP2;ratioP2;P2;SDS_P1;SDS_P2;PMS_P1;PMS_P2;Temp;Humidity;BMP_temperature;BMP_pressure;BME280_temperature;BME280_humidity;BME280_pressure;Samples;Min_cycle;Max_cycle;Signal;HPM_P1;HPM_P2
2022/11/03 00:01:54;;;;;;;11.20;4.70;;;;;;;-141.97;37.95;47492.16;5072647;28;20234;-80
2022/11/03 00:04:21;;;;;;;11.83;5.10;;;;;;;-141.97;37.57;47453.72;5072653;28;20157;-80
2022/11/03 00:06:51;;;;;;;13.43;6.83;;;;;;;-141.97;36.96;47480.63;5073333;28;20248;-80
2022/11/03 00:09:18;;;;;;;12.93;5.40;;;;;;;-141.97;36.30;47471.03;5076198;28;20603;-80
2022/11/03 00:11:45;;;;;;;11.20;5.00;;;;;;;-141.97;35.86;47438.34;5075937;28;20160;-80
2022/11/03 00:14:12;;;;;;;10.67;4.87;;;;;;;-141.97;35.65;47453.72;5075889;28;20165;-80
2022/11/03 00:16:38;;;;;;;10.43;5.03;;;;;;;-141.97;35.48;47497.94;5075652;28;20191;-80
2022/11/03 00:19:04;;;;;;;12.80;4.37;;;;;;;-141.97;35.63;47471.03;5077663;28;20161;-81
2022/11/03 00:21:30;;;;;;;11.33;4.50;;;;;;;-141.97;35.48;47382.63;5078270;28;20656;-81
2022/11/03 00:23:56;;;;;;;11.73;4.43;;;;;;;-141.97;35.40;47476.78;5080497;28;20165;-82
2022/11/03 00:26:26;;;;;;;10.33;4.23;;;;;;;-141.97;35.46;47447.97;5076891;28;20161;-82
2022/11/03 00:28:59;;;;;;;9.60;4.07;;;;;;;-141.97;35.44;47459.50;5075816;28;20191;-81
2022/11/03 00:31:30;;;;;;;10.00;4.40;;;;;;;-141.97;35.46;47455.66;5075609;28;20236;-81
2022/11/03 00:33:56;;;;;;;8.33;4.33;;;;;;;-141.97;35.50;47453.72;5074229;28;20180;-81
2022/11/03 00:36:26;;;;;;;9.73;3.90;;;;;;;-141.97;35.52;47461.41;5075636;28;20192;-81
2022/11/03 00:38:55;;;;;;;13.17;4.40;;;;;;;-141.97;35.53;47476.78;5057313;28;20564;-81
2022/11/03 00:41:22;;;;;;;10.63;4.33;;;;;;;-141.97;35.51;47446.03;5075708;28;20196;-80
2022/11/03 00:43:49;;;;;;;9.03;4.10;;;;;;;-141.97;35.82;47524.84;5075296;28;20634;-81
2022/11/03 00:46:15;;;;;;;11.10;4.50;;;;;;;-141.97;35.75;47417.22;5075175;28;20169;-81
2022/11/03 00:48:40;;;;;;;10.33;4.40;;;;;;;-141.97;35.92;47413.38;5057334;28;20164;-82
2022/11/03 00:51:14;;;;;;;10.60;4.10;;;;;;;-141.97;35.83;47446.03;5075223;28;20203;-81
2022/11/03 00:53:42;;;;;;;10.90;3.93;;;;;;;-141.97;35.83;47444.13;5074983;28;20187;-81
2022/11/03 00:56:13;;;;;;;12.07;3.80;;;;;;;-141.97;35.84;47503.69;5074895;28;20161;-80
2022/11/03 00:58:41;;;;;;;11.57;4.20;;;;;;;-141.97;35.72;47497.94;5056931;28;20573;-80
2022/11/03 01:01:11;;;;;;;9.73;4.00;;;;;;;-141.97;35.72;47457.56;5074874;28;20192;-80
2022/11/03 01:03:38;;;;;;;11.47;4.30;;;;;;;-141.97;35.72;47492.16;5075158;28;20169;-80
2022/11/03 01:08:54;;;;;;;9.27;3.80;;;;;;;-141.97;35.61;47472.94;5075259;28;20647;-81
2022/11/03 01:14:07;;;;;;;11.47;4.37;;;;;;;-141.97;35.76;47463.34;5074908;28;20298;-81
2022/11/03 01:16:33;;;;;;;9.37;3.70;;;;;;;-141.97;35.63;47449.88;5074691;28;20248;-81
2022/11/03 01:18:59;;;;;;;9.33;3.60;;;;;;;-141.97;35.73;47449.88;5074397;28;20233;-81
2022/11/03 01:21:24;;;;;;;10.93;4.00;;;;;;;-141.97;35.84;47476.78;5074563;28;20243;-81
2022/11/03 01:23:50;;;;;;;9.67;3.70;;;;;;;-141.97;36.22;47438.34;5074433;28;20590;-81
2022/11/03 01:26:16;;;;;;;8.23;3.90;;;;;;;-141.97;36.41;47413.38;5056628;28;20173;-80
2022/11/03 01:28:45;;;;;;;9.20;4.00;;;;;;;-141.97;36.35;47444.13;5074472;28;20164;-81
2022/11/03 01:31:22;;;;;;;8.77;3.70;;;;;;;-141.97;36.35;47480.63;5074471;28;20210;-81
2022/11/03 01:33:53;;;;;;;8.33;4.20;;;;;;;-141.97;36.44;47494.09;5074301;28;20167;-81
2022/11/03 01:36:19;;;;;;;11.17;4.00;;;;;;;-141.97;36.57;47501.78;5074126;28;20225;-81
2022/11/03 01:38:44;;;;;;;11.40;4.50;;;;;;;-141.97;36.70;47490.25;5074386;28;20248;-81
2022/11/03 01:41:15;;;;;;;13.17;3.73;;;;;;;-141.97;36.70;47461.41;5074042;28;20670;-81
2022/11/03 01:43:41;;;;;;;10.97;3.63;;;;;;;-141.97;36.91;47480.63;5074372;28;20326;-81
2022/11/03 01:46:29;;;;;;;10.67;3.73;;;;;;;-141.97;37.27;47507.53;5074074;28;20206;-80
2022/11/03 01:49:04;;;;;;;10.13;3.70;;;;;;;-141.97;37.39;47463.34;5074233;28;20153;-80
2022/11/03 01:51:33;;;;;;;9.70;4.27;;;;;;;-141.97;37.21;47484.47;5074091;28;20154;-80
2022/11/03 01:54:03;;;;;;;7.77;3.67;;;;;;;-141.97;37.25;47472.94;5074118;28;20180;-80
2022/11/03 01:56:33;;;;;;;7.27;3.17;;;;;;;-141.97;37.02;47472.94;5056451;28;20156;-81
2022/11/03 01:58:59;;;;;;;9.00;3.77;;;;;;;-141.97;36.76;47484.47;5074082;28;20179;-81
2022/11/03 02:01:25;;;;;;;8.93;3.80;;;;;;;-141.97;36.32;47494.09;5074058;28;20181;-81
2022/11/03 02:03:57;;;;;;;7.67;3.57;;;;;;;-141.97;36.09;47461.41;5073820;28;20168;-81
2022/11/03 02:06:26;;;;;;;8.17;3.40;;;;;;;-141.97;35.95;47601.72;5073755;28;20207;-80
2022/11/03 02:09:08;;;;;;;8.73;3.47;;;;;;;-141.97;35.81;47486.41;5055771;28;20169;-80
2022/11/03 02:14:19;;;;;;;9.73;3.90;;;;;;;-141.97;35.41;47449.88;5073916;28;20167;-81
2022/11/03 02:16:53;;;;;;;9.63;3.40;;;;;;;-141.97;35.26;47488.31;5073630;28;20563;-80
2022/11/03 02:19:30;;;;;;;8.97;3.57;;;;;;;-141.97;35.05;47457.56;5073810;28;20590;-79
2022/11/03 02:22:03;;;;;;;10.67;3.43;;;;;;;-141.97;35.15;47457.56;5073118;28;20180;-81
2022/11/03 02:24:41;;;;;;;9.67;3.73;;;;;;;-141.97;35.07;47471.03;5073717;28;20251;-81
2022/11/03 02:27:07;;;;;;;13.33;3.53;;;;;;;-141.97;35.06;47469.09;5073378;28;20599;-80
2022/11/03 02:29:32;;;;;;;8.10;3.40;;;;;;;-141.97;35.20;47376.84;5072845;28;20164;-81
2022/11/03 02:32:10;;;;;;;6.77;3.80;;;;;;;-141.97;35.09;47482.56;5073590;28;20157;-79
2022/11/03 02:34:48;;;;;;;10.27;4.23;;;;;;;-141.97;35.08;47494.09;5055178;28;20216;-81
2022/11/03 02:37:21;;;;;;;12.07;3.90;;;;;;;-141.97;35.05;47374.94;5055485;28;20204;-80
2022/11/03 02:39:53;;;;;;;10.80;3.67;;;;;;;-141.97;34.74;47472.94;5073581;28;20171;-80
2022/11/03 02:42:20;;;;;;;12.37;3.83;;;;;;;-141.97;34.76;47465.25;5055249;28;20291;-81
2022/11/03 02:44:49;;;;;;;9.83;4.07;;;;;;;-141.97;34.62;47642.09;5073680;28;20262;-81
2022/11/03 02:47:16;;;;;;;8.37;3.70;;;;;;;-141.97;34.53;47499.84;5073243;28;20161;-80
2022/11/03 02:49:49;;;;;;;8.20;3.50;;;;;;;-141.97;34.39;47459.50;5073430;28;20157;-81
2022/11/03 02:52:36;;;;;;;12.03;4.40;;;;;;;-141.97;34.31;47442.19;5073402;28;20261;-81
2022/11/03 02:55:21;;;;;;;8.00;4.20;;;;;;;-141.97;34.35;47597.88;5073596;28;20160;-81
2022/11/03 02:57:54;;;;;;;8.17;3.80;;;;;;;-141.97;34.42;47503.69;5073359;28;20650;-81
2022/11/03 03:00:20;;;;;;;10.10;3.80;;;;;;;-141.97;34.50;47459.50;5073441;28;20160;-81
2022/11/03 03:02:55;;;;;;;8.10;3.37;;;;;;;-141.97;34.47;47482.56;5073115;28;20192;-81
2022/11/03 03:05:24;;;;;;;10.30;4.13;;;;;;;-141.97;34.37;47415.28;5073560;28;20202;-81
2022/11/03 03:07:53;;;;;;;8.37;3.77;;;;;;;-141.97;34.67;47465.25;5073499;28;20167;-81
2022/11/03 03:10:26;;;;;;;8.83;3.70;;;;;;;-141.97;34.65;47472.94;5073350;28;20199;-81
2022/11/03 03:12:55;;;;;;;10.07;3.73;;;;;;;-141.97;34.76;47482.56;5073253;28;20183;-81
2022/11/03 03:15:34;;;;;;;7.77;3.60;;;;;;;-141.97;34.79;47463.34;5055077;28;20657;-81
2022/11/03 03:18:09;;;;;;;7.13;3.77;;;;;;;-141.97;34.81;47474.88;5073099;28;20248;-81
2022/11/03 03:20:47;;;;;;;9.77;3.77;;;;;;;-141.97;34.88;47442.19;5073248;28;20247;-81
2022/11/03 03:23:19;;;;;;;9.57;3.93;;;;;;;-141.97;34.94;47471.03;5073138;28;20169;-80
2022/11/03 03:26:09;;;;;;;8.20;3.77;;;;;;;-141.97;35.09;47444.13;5073054;28;20218;-80
2022/11/03 03:28:48;;;;;;;8.27;3.73;;;;;;;-141.97;35.13;47463.34;5073277;28;20727;-80
2022/11/03 03:31:17;;;;;;;7.50;3.67;;;;;;;-141.97;35.23;47503.69;5072796;28;20247;-80
2022/11/03 03:33:45;;;;;;;10.20;4.03;;;;;;;-141.97;35.26;47661.31;5073223;28;20164;-80
2022/11/03 03:36:15;;;;;;;10.83;4.17;;;;;;;-141.97;35.05;47471.03;5075166;28;20216;-78
2022/11/03 03:38:45;;;;;;;9.03;3.97;;;;;;;-141.97;35.08;47461.41;5077187;28;20179;-80
2022/11/03 03:41:20;;;;;;;8.17;3.90;;;;;;;-141.97;35.16;47530.59;5074722;28;20254;-81
2022/11/03 03:43:48;;;;;;;8.63;3.90;;;;;;;-141.97;35.36;47399.91;5075144;28;20171;-80
2022/11/03 03:46:15;;;;;;;10.00;4.30;;;;;;;-141.97;35.38;47584.44;5075458;28;20545;-81
2022/11/03 03:48:41;;;;;;;8.67;3.80;;;;;;;-141.97;35.69;47561.38;5076431;28;20172;-82
2022/11/03 03:51:08;;;;;;;7.10;3.90;;;;;;;-141.97;35.60;47442.19;5076731;28;20164;-81
2022/11/03 03:53:33;;;;;;;8.73;3.97;;;;;;;-141.97;35.58;47453.72;5076603;28;20160;-81
2022/11/03 03:55:59;;;;;;;9.03;4.00;;;;;;;-141.97;35.69;47592.13;5076568;28;20543;-80
2022/11/03 03:58:24;;;;;;;10.27;3.90;;;;;;;-141.97;35.48;47471.03;5076253;28;20165;-81
2022/11/03 04:00:50;;;;;;;14.97;4.60;;;;;;;-141.97;35.20;47446.03;5076125;28;20165;-80
2022/11/03 04:03:21;;;;;;;10.23;4.03;;;;;;;-141.97;35.26;47488.31;5076392;28;20172;-81
2022/11/03 04:05:47;;;;;;;12.37;4.20;;;;;;;-141.97;35.37;47469.09;5076397;28;20175;-81
2022/11/03 04:08:14;;;;;;;7.30;3.60;;;;;;;-141.97;35.31;47465.25;5076429;28;20165;-82
2022/11/03 04:10:39;;;;;;;9.20;4.30;;;;;;;-141.97;35.40;47463.34;5076463;28;20211;-81
2022/11/03 04:24:01;;;;;;;13.37;4.33;;;;;;;-141.97;35.31;47461.41;5075393;28;20216;-81
2022/11/03 04:26:27;;;;;;;9.33;4.63;;;;;;;-141.97;35.16;47430.66;5057467;28;20559;-81
2022/11/03 04:28:53;;;;;;;14.63;4.30;;;;;;;-141.97;35.02;47422.97;5032722;28;20807;-81
2022/11/03 04:31:20;;;;;;;9.23;3.50;;;;;;;-141.97;34.97;47476.78;5054902;28;20243;-80
2022/11/03 04:33:46;;;;;;;6.20;3.60;;;;;;;-141.97;34.82;47471.03;5064423;28;20554;-82
2022/11/03 04:36:20;;;;;;;7.77;3.57;;;;;;;-141.97;34.76;47486.41;5074723;28;20253;-80
2022/11/03 04:38:47;;;;;;;8.67;3.87;;;;;;;-141.97;34.85;47461.41;5072489;28;20193;-81
2022/11/03 04:41:19;;;;;;;8.83;3.67;;;;;;;-141.97;34.90;47422.97;5053838;28;20205;-81
2022/11/03 04:43:45;;;;;;;9.83;3.67;;;;;;;-141.97;34.96;47488.31;5053596;28;20185;-81
2022/11/03 04:46:15;;;;;;;6.83;3.73;;;;;;;-141.97;35.00;47465.25;5064632;28;20687;-80
2022/11/03 04:48:41;;;;;;;8.70;3.70;;;;;;;-141.97;35.05;47449.88;5073166;28;20204;-80
2022/11/03 04:51:18;;;;;;;13.57;4.43;;;;;;;-141.97;35.10;47465.25;5073768;28;20176;-80
2022/11/03 04:53:48;;;;;;;10.67;3.80;;;;;;;-141.97;34.94;47480.63;5073036;28;20172;-80
2022/11/03 04:56:18;;;;;;;13.23;4.00;;;;;;;-141.97;34.96;47459.50;5073611;28;20187;-81
2022/11/03 04:58:44;;;;;;;8.67;3.77;;;;;;;-141.97;35.23;47611.34;5073077;28;20684;-82
2022/11/03 05:01:13;;;;;;;9.40;4.30;;;;;;;-141.97;35.37;47426.81;5054659;28;20208;-81
2022/11/03 05:03:40;;;;;;;9.23;3.77;;;;;;;-141.97;35.30;47472.94;5072789;28;20180;-81
2022/11/03 05:06:11;;;;;;;7.83;3.90;;;;;;;-141.97;35.41;47484.47;5073339;28;20187;-81
2022/11/03 05:08:36;;;;;;;12.30;4.00;;;;;;;-141.97;35.42;47457.56;5055880;28;20250;-79
2022/11/03 05:11:13;;;;;;;10.63;3.60;;;;;;;-141.97;35.60;47428.75;5071523;28;20188;-79
2022/11/03 05:13:38;;;;;;;10.13;3.73;;;;;;;-141.97;35.51;47534.44;5071600;28;20180;-79
2022/11/03 05:16:05;;;;;;;10.43;4.47;;;;;;;-141.97;35.52;47594.03;5072067;28;20180;-80
2022/11/03 05:18:34;;;;;;;9.73;3.80;;;;;;;-141.97;35.52;47465.25;5071783;28;20265;-79
2022/11/03 05:21:12;;;;;;;9.40;3.80;;;;;;;-141.97;35.63;47472.94;5071312;28;20214;-79
2022/11/03 05:23:40;;;;;;;9.60;3.90;;;;;;;-141.97;35.58;47465.25;5052609;28;20234;-79
2022/11/03 05:26:13;;;;;;;7.33;3.80;;;;;;;-141.97;35.34;47426.81;5051832;28;20633;-79
2022/11/03 05:28:42;;;;;;;7.60;3.80;;;;;;;-141.97;35.47;47488.31;5042423;28;20268;-80
2022/11/03 05:31:27;;;;;;;9.63;3.70;;;;;;;-141.97;35.63;47505.63;5051305;28;20185;-79
2022/11/03 05:33:56;;;;;;;11.87;3.70;;;;;;;-141.97;35.50;47497.94;5051550;28;20581;-80
2022/11/03 05:36:24;;;;;;;8.53;3.60;;;;;;;-141.97;35.33;47453.72;5051913;28;20216;-78
2022/11/03 05:38:53;;;;;;;8.80;3.50;;;;;;;-141.97;35.64;47459.50;5052487;28;20181;-80
2022/11/03 05:41:22;;;;;;;8.47;3.33;;;;;;;-141.97;35.41;47455.66;5049689;28;20200;-80
2022/11/03 05:43:53;;;;;;;10.53;3.63;;;;;;;-141.97;35.51;47471.03;5071578;28;20551;-79
2022/11/03 05:46:18;;;;;;;8.00;3.90;;;;;;;-141.97;35.58;47432.59;5070298;28;20242;-79
2022/11/03 05:48:44;;;;;;;8.70;3.67;;;;;;;-141.97;35.60;47496.00;5071714;28;20279;-80
2022/11/03 05:51:22;;;;;;;10.87;3.97;;;;;;;-141.97;35.52;47453.72;5057326;28;20188;-78
2022/11/03 05:53:51;;;;;;;15.70;4.73;;;;;;;-141.97;35.55;47465.25;5051821;28;20205;-79
2022/11/03 05:56:22;;;;;;;35.20;18.67;;;;;;;-141.97;35.46;47463.34;5051727;28;20309;-79
2022/11/03 05:58:49;;;;;;;39.87;20.00;;;;;;;-141.97;35.35;47484.47;5051866;28;20653;-79
2022/11/03 06:01:27;;;;;;;21.47;10.97;;;;;;;-141.97;35.49;47630.56;5051844;28;20251;-80
2022/11/03 06:03:53;;;;;;;13.73;6.67;;;;;;;-141.97;35.40;47442.19;5051811;28;20181;-80
2022/11/03 06:06:27;;;;;;;10.57;3.90;;;;;;;-141.97;35.34;47476.78;5052335;28;20177;-80
2022/11/03 06:08:52;;;;;;;13.37;4.50;;;;;;;-141.97;35.43;47438.34;5052900;28;20912;-80
2022/11/03 06:11:34;;;;;;;7.77;3.97;;;;;;;-141.97;35.32;47624.78;5052760;28;20216;-81
2022/11/03 06:14:00;;;;;;;16.00;6.57;;;;;;;-141.97;35.24;47469.09;5052535;28;20176;-80
2022/11/03 06:16:43;;;;;;;14.00;4.73;;;;;;;-141.97;35.09;47447.97;5034673;28;20221;-81
2022/11/03 06:19:22;;;;;;;11.17;4.30;;;;;;;-141.97;34.97;47426.81;5045433;28;20210;-81
2022/11/03 06:21:52;;;;;;;11.63;4.07;;;;;;;-141.97;34.93;47434.50;5061656;28;20209;-80
2022/11/03 06:24:21;;;;;;;12.23;3.70;;;;;;;-141.97;34.64;47463.34;5067668;28;20172;-79
2022/11/03 06:26:48;;;;;;;17.67;5.10;;;;;;;-141.97;34.79;47472.94;5068519;28;20199;-81
2022/11/03 06:29:16;;;;;;;16.20;4.67;;;;;;;-141.97;34.44;47447.97;5050535;28;20220;-81
2022/11/03 06:31:44;;;;;;;11.37;3.73;;;;;;;-141.97;34.20;47465.25;5066909;28;20192;-80
2022/11/03 06:34:36;;;;;;;9.07;3.70;;;;;;;-141.97;34.07;47449.88;5068412;28;20215;-81
2022/11/03 06:37:16;;;;;;;9.73;3.80;;;;;;;-141.97;34.01;47442.19;5068492;28;20228;-81
2022/11/03 06:39:41;;;;;;;11.50;3.50;;;;;;;-141.97;33.65;47449.88;5068702;28;20180;-79
2022/11/03 06:42:14;;;;;;;12.40;3.80;;;;;;;-141.97;33.61;47413.38;5052114;28;20197;-80
2022/11/03 06:44:42;;;;;;;15.17;4.83;;;;;;;-141.97;33.25;47428.75;5048384;28;20185;-80
2022/11/03 06:47:20;;;;;;;11.27;4.10;;;;;;;-141.97;33.49;47447.97;5055075;28;20247;-81
2022/11/03 06:49:46;;;;;;;12.80;4.20;;;;;;;-141.97;33.35;47434.50;5068529;28;20180;-80
2022/11/03 06:52:24;;;;;;;10.97;3.90;;;;;;;-141.97;32.76;47480.63;5051533;28;20649;-81
2022/11/03 06:54:58;;;;;;;8.70;3.30;;;;;;;-141.97;32.58;47430.66;5049030;28;20179;-81
2022/11/03 06:57:23;;;;;;;7.60;4.47;;;;;;;-141.97;32.08;47440.28;5049094;28;20188;-81
2022/11/03 06:59:51;;;;;;;11.60;5.10;;;;;;;-141.97;32.16;47357.63;5048030;28;20182;-80
2022/11/03 07:02:45;;;;;;;14.37;4.13;;;;;;;-141.97;32.37;47449.88;5047346;28;20213;-82
2022/11/03 07:05:21;;;;;;;9.73;3.73;;;;;;;-141.97;32.54;47463.34;4967413;28;20226;-82
2022/11/03 07:07:47;;;;;;;11.27;4.13;;;;;;;-141.97;32.81;47421.06;4967213;28;20782;-84
2022/11/03 07:10:13;;;;;;;10.97;4.20;;;;;;;-141.97;32.68;47419.13;4966722;28;20196;-80
2022/11/03 07:12:40;;;;;;;12.50;4.43;;;;;;;-141.97;32.73;47434.50;5004477;28;20198;-79
2022/11/03 07:15:20;;;;;;;8.67;3.53;;;;;;;-141.97;32.63;47430.66;5005714;28;20183;-81
2022/11/03 07:17:45;;;;;;;13.83;4.03;;;;;;;-141.97;32.18;47455.66;5011170;28;20182;-80
2022/11/03 07:20:15;;;;;;;14.73;5.80;;;;;;;-141.97;32.21;47415.28;5009528;28;20233;-80
2022/11/03 07:22:42;;;;;;;15.40;7.67;;;;;;;-141.97;32.74;47430.66;5009038;28;20214;-80
2022/11/03 07:25:16;;;;;;;19.97;7.60;;;;;;;-141.97;33.00;47434.50;4998627;28;20187;-81
2022/11/03 07:27:42;;;;;;;18.20;7.93;;;;;;;-141.97;33.32;47453.72;4992580;28;20183;-80
2022/11/03 07:30:07;;;;;;;16.60;7.53;;;;;;;-141.97;32.94;47422.97;4983127;28;20243;-80
2022/11/03 07:32:33;;;;;;;19.17;7.60;;;;;;;-141.97;32.90;47434.50;4992346;28;20187;-81
2022/11/03 07:35:10;;;;;;;18.67;7.53;;;;;;;-141.97;32.83;47440.28;4992259;28;20301;-78
2022/11/03 07:37:36;;;;;;;16.53;7.50;;;;;;;-141.97;32.89;47469.09;4993071;28;20607;-80
2022/11/03 07:40:02;;;;;;;17.53;7.87;;;;;;;-141.97;32.68;47457.56;4992141;28;20218;-82
2022/11/03 07:42:27;;;;;;;18.20;7.40;;;;;;;-141.97;32.75;47459.50;5050665;28;20224;-81
2022/11/03 07:44:55;;;;;;;17.73;7.27;;;;;;;-141.97;32.57;47351.88;5075892;28;20181;-81
2022/11/03 07:47:24;;;;;;;19.20;7.30;;;;;;;-141.97;32.63;47432.59;5075197;28;20184;-81
2022/11/03 07:49:50;;;;;;;15.63;7.17;;;;;;;-141.97;32.62;47428.75;5075159;28;20672;-82
2022/11/03 07:52:20;;;;;;;18.33;7.00;;;;;;;-141.97;32.56;47432.59;5077704;28;20189;-81
2022/11/03 07:54:46;;;;;;;17.17;8.77;;;;;;;-141.97;32.65;47430.66;5060116;28;20188;-82
2022/11/03 07:57:25;;;;;;;17.13;7.17;;;;;;;-141.97;32.57;47442.19;5079313;28;20245;-82
2022/11/03 07:59:55;;;;;;;16.70;7.40;;;;;;;-141.97;32.51;47440.28;5061447;28;20192;-81
2022/11/03 08:02:42;;;;;;;17.07;6.93;;;;;;;-141.97;32.44;47453.72;5060778;28;20208;-82
2022/11/03 08:05:08;;;;;;;14.10;7.37;;;;;;;-141.97;32.51;47453.72;5079225;28;20206;-82
2022/11/03 08:07:33;;;;;;;19.50;8.77;;;;;;;-141.97;32.32;47436.44;5079706;28;20181;-81
2022/11/03 08:09:58;;;;;;;16.50;8.43;;;;;;;-141.97;32.13;47398.00;5077622;28;20211;-82
2022/11/03 08:12:24;;;;;;;16.47;8.07;;;;;;;-141.97;32.08;47453.72;5060659;28;20242;-81
2022/11/03 08:14:49;;;;;;;20.80;8.50;;;;;;;-141.97;31.99;47330.72;5078077;28;20580;-82
2022/11/03 08:17:15;;;;;;;20.33;8.37;;;;;;;-141.97;31.58;47449.88;5076830;28;20188;-82
2022/11/03 08:19:41;;;;;;;18.07;8.30;;;;;;;-141.97;31.43;47430.66;5076439;28;20613;-81
2022/11/03 08:22:06;;;;;;;23.83;12.80;;;;;;;-141.97;31.74;47342.25;5078981;28;20230;-81
2022/11/03 08:24:32;;;;;;;19.73;9.17;;;;;;;-141.97;31.67;47403.75;5071006;28;20185;-82
2022/11/03 08:26:57;;;;;;;20.87;10.47;;;;;;;-141.97;31.61;47367.25;5056125;28;20184;-82
2022/11/03 08:29:26;;;;;;;16.27;8.10;;;;;;;-141.97;31.29;47388.38;5045010;28;20259;-81
2022/11/03 08:31:54;;;;;;;15.20;7.70;;;;;;;-141.97;31.91;47430.66;5058622;28;20244;-81
2022/11/03 08:34:19;;;;;;;16.80;7.87;;;;;;;-141.97;31.67;47419.13;5057313;28;20259;-81
2022/11/03 08:36:45;;;;;;;15.17;8.50;;;;;;;-141.97;30.93;47419.13;5055896;28;20193;-80
2022/11/03 08:39:10;;;;;;;18.47;8.47;;;;;;;-141.97;31.05;47401.84;5056781;28;20215;-81
2022/11/03 08:41:36;;;;;;;23.23;8.93;;;;;;;-141.97;31.17;47417.22;5057558;28;20736;-81
2022/11/03 08:44:01;;;;;;;18.10;8.43;;;;;;;-141.97;31.34;47365.31;5057481;28;20711;-80
2022/11/03 08:46:27;;;;;;;16.77;8.00;;;;;;;-141.97;31.26;47422.97;5052937;28;20223;-80
2022/11/03 08:48:52;;;;;;;15.90;7.33;;;;;;;-141.97;31.12;47421.06;5052936;28;20268;-79
2022/11/03 08:51:18;;;;;;;16.60;8.07;;;;;;;-141.97;30.80;47419.13;5052989;28;20185;-79
2022/11/03 08:53:43;;;;;;;17.17;8.03;;;;;;;-141.97;30.57;47507.53;5052997;28;20178;-80
2022/11/03 08:56:10;;;;;;;18.60;8.50;;;;;;;-141.97;30.52;47394.16;5053089;28;20181;-80
2022/11/03 08:58:35;;;;;;;22.33;9.37;;;;;;;-141.97;30.71;47419.13;5053366;28;20181;-79
2022/11/03 09:01:01;;;;;;;21.17;8.73;;;;;;;-141.97;30.43;47403.75;5052359;28;20264;-80
2022/11/03 09:03:26;;;;;;;17.17;8.73;;;;;;;-141.97;30.14;47392.22;5052463;28;20192;-81
2022/11/03 09:05:52;;;;;;;17.07;8.83;;;;;;;-141.97;30.34;47399.91;5052646;28;20181;-80
2022/11/03 09:08:17;;;;;;;16.27;8.30;;;;;;;-141.97;30.62;47413.38;5051599;28;20199;-81
2022/11/03 09:10:42;;;;;;;20.53;9.07;;;;;;;-141.97;30.19;47359.56;5051550;28;20185;-81
2022/11/03 09:13:08;;;;;;;17.43;8.60;;;;;;;-141.97;30.08;47401.84;5054514;28;20601;-80
2022/11/03 09:15:33;;;;;;;17.97;9.40;;;;;;;-141.97;30.09;47434.50;5055671;28;20153;-80
2022/11/03 09:17:59;;;;;;;22.13;11.00;;;;;;;-141.97;30.24;47396.06;5054930;28;20625;-80
2022/11/03 09:20:25;;;;;;;18.07;8.93;;;;;;;-141.97;30.99;47403.75;5054967;28;20161;-81
2022/11/03 09:22:51;;;;;;;20.30;9.73;;;;;;;-141.97;30.60;47371.09;5054878;28;20220;-80
2022/11/03 09:25:17;;;;;;;17.57;9.43;;;;;;;-141.97;30.15;47386.47;5054744;28;20703;-80
2022/11/03 09:27:43;;;;;;;21.07;9.00;;;;;;;-141.97;29.79;47373.00;5054430;28;20158;-80
2022/11/03 09:30:09;;;;;;;12.10;7.10;;;;;;;-141.97;29.50;47407.59;5054465;28;20156;-81
2022/11/03 09:32:34;;;;;;;25.20;14.30;;;;;;;-141.97;29.24;47369.16;5054885;28;20154;-79
2022/11/03 09:35:00;;;;;;;16.80;9.00;;;;;;;-141.97;29.16;47403.75;5036297;28;20217;-80
2022/11/03 09:37:25;;;;;;;25.73;10.47;;;;;;;-141.97;29.29;47401.84;5054459;28;20642;-80
2022/11/03 09:39:51;;;;;;;19.90;9.63;;;;;;;-141.97;28.90;47501.78;5036383;28;20524;-79
2022/11/03 09:42:17;;;;;;;25.47;12.13;;;;;;;-141.97;29.04;47382.63;5054249;28;20268;-79
2022/11/03 09:44:45;;;;;;;19.27;9.90;;;;;;;-141.97;29.27;47411.44;5054641;28;20211;-80
2022/11/03 09:47:22;;;;;;;19.80;10.17;;;;;;;-141.97;29.14;47367.25;5054618;28;20221;-80
2022/11/03 09:49:48;;;;;;;20.77;9.97;;;;;;;-141.97;29.12;47342.25;5054596;28;20231;-81
2022/11/03 09:52:19;;;;;;;22.23;10.80;;;;;;;-141.97;29.27;47384.53;5054242;28;20161;-80
2022/11/03 09:54:44;;;;;;;18.57;10.70;;;;;;;-141.97;29.27;47392.22;5054189;28;20243;-81
2022/11/03 09:57:14;;;;;;;19.57;10.73;;;;;;;-141.97;29.30;47367.25;5054467;28;20641;-80
2022/11/03 09:59:43;;;;;;;19.33;10.60;;;;;;;-141.97;29.06;47369.16;5055803;28;20166;-78
2022/11/03 10:02:27;;;;;;;19.33;10.40;;;;;;;-141.97;29.21;47357.63;5058473;28;20250;-78
2022/11/03 10:04:58;;;;;;;19.83;10.23;;;;;;;-141.97;29.10;47396.06;5056013;28;20643;-81
2022/11/03 10:07:25;;;;;;;17.10;10.17;;;;;;;-141.97;29.19;47349.94;5054990;28;20157;-80
2022/11/03 10:09:53;;;;;;;20.97;12.77;;;;;;;-141.97;29.16;47369.16;5055542;28;20200;-79
2022/11/03 10:12:21;;;;;;;18.50;10.50;;;;;;;-141.97;29.16;47373.00;5054695;28;20185;-80
2022/11/03 10:14:46;;;;;;;16.07;10.00;;;;;;;-141.97;29.37;47369.16;5036641;28;20204;-80
2022/11/03 10:17:24;;;;;;;17.73;9.30;;;;;;;-141.97;29.22;47403.75;5054641;28;20634;-80
2022/11/03 10:19:52;;;;;;;16.70;9.67;;;;;;;-141.97;28.81;47349.94;5054277;28;20153;-80
2022/11/03 10:22:19;;;;;;;16.10;9.13;;;;;;;-141.97;28.92;47394.16;5056397;28;20708;-77
2022/11/03 10:24:45;;;;;;;20.23;10.00;;;;;;;-141.97;29.23;47363.41;5074845;28;20251;-79
2022/11/03 10:27:22;;;;;;;21.50;10.90;;;;;;;-141.97;28.93;47363.41;5074270;28;20599;-80
2022/11/03 10:30:09;;;;;;;18.97;11.10;;;;;;;-141.97;28.55;47355.72;5075188;28;20172;-77
2022/11/03 10:32:34;;;;;;;18.75;10.15;;;;;;;-141.97;28.49;47334.56;5074041;28;20164;-79
2022/11/03 10:35:30;;;;;;;23.07;11.67;;;;;;;-141.97;28.34;47357.63;5074157;28;20785;-79
2022/11/03 10:37:56;;;;;;;27.70;17.83;;;;;;;-141.97;28.78;47340.34;4992617;28;20199;-81
2022/11/03 10:40:35;;;;;;;38.63;21.08;;;;;;;-141.97;29.15;47376.84;4992557;28;20197;-80
2022/11/03 10:43:00;;;;;;;25.90;16.20;;;;;;;-141.97;29.42;47363.41;4994574;28;20725;-81
2022/11/03 10:45:26;;;;;;;28.30;16.80;;;;;;;-141.97;29.71;47369.16;4978240;28;20258;-81
2022/11/03 10:48:04;;;;;;;24.07;14.27;;;;;;;-141.97;29.34;47374.94;4992609;28;20287;-79
2022/11/03 10:50:29;;;;;;;21.27;11.60;;;;;;;-141.97;29.21;47355.72;4991577;28;20167;-79
2022/11/03 10:52:55;;;;;;;20.27;10.97;;;;;;;-141.97;29.73;47369.16;4993885;28;20686;-79
2022/11/03 10:55:23;;;;;;;18.50;10.70;;;;;;;-141.97;29.94;47390.31;4995835;28;20278;-80
2022/11/03 10:57:48;;;;;;;20.30;11.40;;;;;;;-141.97;29.73;47384.53;4993082;28;20203;-80
2022/11/03 11:00:18;;;;;;;20.17;12.10;;;;;;;-141.97;29.50;47365.31;4993320;28;20168;-79
2022/11/03 11:02:45;;;;;;;23.20;15.47;;;;;;;-141.97;29.63;47357.63;4977086;28;20686;-81
2022/11/03 11:05:21;;;;;;;26.70;14.90;;;;;;;-141.97;29.91;47315.34;4992093;28;20179;-80
2022/11/03 11:07:50;;;;;;;21.10;13.60;;;;;;;-141.97;30.08;47357.63;4991915;28;20183;-79
2022/11/03 11:10:16;;;;;;;22.93;13.20;;;;;;;-141.97;29.63;47405.69;4992091;28;20683;-80
2022/11/03 11:13:23;;;;;;;26.93;12.97;;;;;;;-141.97;29.58;47388.38;4991694;28;20168;-80
2022/11/03 11:16:30;;;;;;;19.43;11.13;;;;;;;-141.97;29.32;47342.25;5073217;28;20165;-80
2022/11/03 11:18:55;;;;;;;21.07;13.30;;;;;;;-141.97;29.45;47336.50;5072953;28;20593;-79
2022/11/03 11:21:20;;;;;;;23.37;13.10;;;;;;;-141.97;29.19;47373.00;5072831;28;20185;-79
2022/11/03 11:23:47;;;;;;;22.70;12.77;;;;;;;-141.97;28.95;47376.84;5073120;28;20170;-78
2022/11/03 11:26:29;;;;;;;30.88;12.63;;;;;;;-141.97;29.09;47363.41;5072995;28;20172;-80
2022/11/03 11:29:14;;;;;;;19.45;11.40;;;;;;;-141.97;29.21;47353.78;5073114;28;20184;-80
2022/11/03 11:31:43;;;;;;;20.90;12.45;;;;;;;-141.97;29.18;47342.25;5073027;28;20166;-81
2022/11/03 11:34:15;;;;;;;24.40;12.15;;;;;;;-141.97;29.70;47357.63;5072371;28;20720;-80
2022/11/03 11:36:45;;;;;;;24.67;12.07;;;;;;;-141.97;29.43;47357.63;5072867;28;20162;-80
2022/11/03 11:39:23;;;;;;;17.50;10.90;;;;;;;-141.97;29.54;47349.94;5072698;28;20294;-79
2022/11/03 11:42:17;;;;;;;23.65;11.20;;;;;;;-141.97;29.16;47355.72;5073028;28;20226;-80